Latest Weather Observations for Giles*

IDD60801

Issued at 7:01 pm CST Friday 1 July 2016 (issued every 30 minutes, with the page automatically refreshed every 10 minutes)

About weather observations | Map of weather stations | Latest weather observations for NT | Other Formats
Station Details ID: 013017 Name: GILES METEOROLOGICAL OFFICE Lat: -25.03 Lon: 128.30 Height: 598.0 m
Data from the previous 72 hours. | See also: Recent months at Giles*

* Giles observations are collected in the South Australia time zone, which includes daylight saving in the summer period. Therefore, Rain since 9am value is with respect to South Australia local time.

Date/Time
CST
Temp
°C
App
Temp
°C
Dew
Point
°C
Rel
Hum
%
Delta-T
°C
Wind Press
QNH
hPa
Press
MSL
hPa
Rain since
9am
mm
Dir  Spd
km/h
Gust
km/h
Spd
kts
Gust
kts
01/07:00pm 12.0 9.3 11.6 97 0.2 ESE 17 22 9 12 1026.2 1025.5 4.0
01/06:30pm 12.4 9.8 11.9 97 0.3 SE 17 22 9 12 1026.0 1025.4 3.8
01/06:00pm 12.5 10.7 12.0 97 0.3 ESE 13 19 7 10 1025.9 1025.3 3.8
01/05:30pm 12.6 10.8 12.1 97 0.3 ESE 13 17 7 9 1025.6 1025.0 3.6
01/05:00pm 12.6 10.3 11.7 94 0.5 ESE 15 19 8 10 1025.5 1024.9 3.4
01/04:30pm 12.6 10.7 11.9 95 0.4 ESE 13 20 7 11 1025.3 1024.6 3.4
01/04:00pm 12.6 11.0 11.7 94 0.5 ESE 11 17 6 9 1025.3 1024.6 3.4
01/03:30pm 12.6 10.3 11.7 94 0.5 ESE 15 20 8 11 1025.3 1024.6 3.4
01/03:00pm 12.7 9.7 12.0 95 0.4 E 19 26 10 14 1025.3 1024.6 3.2
01/02:30pm 12.6 9.8 11.5 93 0.6 E 17 22 9 12 1025.8 1025.2 3.0
01/02:18pm 12.6 10.5 11.3 92 0.7 E 13 20 7 11 1025.9 1025.3 2.8
01/02:00pm 12.8 10.4 11.5 92 0.7 ENE 15 26 8 14 1025.9 1025.3 2.8
01/01:30pm 12.8 9.6 11.3 91 0.8 E 19 24 10 13 1026.4 1025.7 2.8
01/01:00pm 12.6 9.3 11.7 94 0.5 ENE 20 28 11 15 1026.5 1025.8 2.6
01/12:30pm 12.3 8.1 11.2 93 0.6 ENE 24 33 13 18 1027.1 1026.5 2.6
01/12:00pm 12.6 10.3 11.9 95 0.4 E 15 20 8 11 1027.8 1027.2 2.4
01/11:51am 12.6 10.7 11.9 95 0.4 E 13 17 7 9 1028.2 1027.5 2.0
01/11:42am 12.5 10.3 12.1 97 0.2 E 15 20 8 11 1028.3 1027.6 1.6
01/11:30am 12.5 10.2 11.6 94 0.5 E 15 26 8 14 1028.3 1027.6 1.4
01/11:00am 12.8 10.5 11.9 94 0.5 E 15 22 8 12 1028.1 1027.4 1.4
01/10:30am 12.7 11.2 12.0 95 0.4 ESE 11 13 6 7 1028.6 1028.0 1.4
01/10:00am 12.5 10.6 11.8 95 0.4 SE 13 20 7 11 1028.3 1027.6 1.0
01/09:30am 12.3 10.0 11.7 96 0.3 SE 15 20 8 11 1027.7 1027.1 0.6
01/09:19am 12.2 10.2 11.6 96 0.3 ESE 13 19 7 10 1027.5 1026.7 0.4
01/09:00am 12.2 10.6 11.6 96 0.3 SE 11 15 6 8 1027.4 1026.6 2.6
01/08:30am 12.1 10.5 11.4 95 0.4 ESE 11 17 6 9 1026.8 1025.9 2.6
01/08:17am 12.0 10.7 11.4 96 0.3 E 9 13 5 7 1026.7 1025.8 2.6
01/08:00am 12.0 10.3 11.3 95 0.4 ESE 11 15 6 8 1026.5 1025.6 2.4
01/07:30am 12.0 9.9 11.3 95 0.4 ESE 13 17 7 9 1025.9 1025.1 2.4
01/07:00am 12.1 10.8 11.2 94 0.5 ESE 9 13 5 7 1025.6 1024.8 2.2
01/06:30am 12.1 9.6 11.2 94 0.5 E 15 22 8 12 1024.8 1023.9 2.2
01/06:00am 12.0 10.0 11.4 96 0.3 ESE 13 20 7 11 1025.1 1024.2 2.2
01/05:30am 12.2 9.8 11.5 95 0.4 SE 15 19 8 10 1025.1 1024.2 1.8
01/05:00am 12.2 10.6 11.5 95 0.4 SE 11 13 6 7 1024.9 1024.0 1.4
01/04:30am 12.5 10.4 11.0 90 0.8 E 13 19 7 10 1024.2 1023.4 1.2
01/04:00am 12.7 11.3 11.0 89 0.9 E 9 13 5 7 1024.2 1023.4 0.8
01/03:30am 12.7 10.6 11.0 89 0.9 ESE 13 17 7 9 1024.1 1023.3 0.8
01/03:00am 12.7 10.6 11.0 89 0.9 E 13 17 7 9 1024.2 1023.4 0.6
01/02:30am 12.7 10.2 11.0 89 0.9 ESE 15 19 8 10 1024.5 1023.6 0.4
01/02:00am 12.8 10.3 11.1 89 0.9 SE 15 19 8 10 1024.9 1024.0 0.4
01/01:30am 13.1 11.8 11.4 89 0.9 ESE 9 11 5 6 1025.3 1024.4 0.2
01/01:00am 13.8 11.9 10.6 81 1.7 ESE 11 11 6 6 1025.4 1024.5 0.0
01/12:30am 14.5 12.4 9.6 72 2.6 SE 11 15 6 8 1024.8 1023.9 0.0
01/12:00am 14.8 13.4 9.5 70 2.8 SE 7 9 4 5 1024.7 1023.8 0.0
 
Date/Time
CST
Temp
°C
App
Temp
°C
Dew
Point
°C
Rel
Hum
%
Delta-T
°C
Wind Press
QNH
hPa
Press
MSL
hPa
Rain since
9am
mm
Dir  Spd
km/h
Gust
km/h
Spd
kts
Gust
kts
30/11:30pm 15.1 12.9 9.2 68 3.1 ESE 11 15 6 8 1024.2 1023.4 0.0
30/11:00pm 15.1 13.3 9.4 69 3.0 SE 9 11 5 6 1024.7 1023.8 0.0
30/10:30pm 15.4 14.0 9.4 67 3.2 ENE 7 11 4 6 1024.1 1023.3 0.0
30/10:00pm 15.6 14.0 8.7 63 3.6 SE 7 11 4 6 1024.3 1023.5 0.0
30/09:30pm 15.3 13.9 9.0 66 3.3 E 6 9 3 5 1023.8 1022.9 0.0
30/09:00pm 15.2 13.4 9.6 69 3.0 SSE 9 13 5 7 1023.8 1022.9 0.0
30/08:30pm 15.6 13.9 8.5 62 3.7 ENE 7 9 4 5 1023.6 1022.7 0.0
30/08:00pm 15.5 13.8 8.4 62 3.7 SE 7 9 4 5 1023.1 1022.2 0.0
30/07:30pm 15.4 13.1 7.4 59 4.1 SSE 9 11 5 6 1022.7 1021.8 0.0
30/07:00pm 16.0 13.3 7.4 56 4.4 ESE 11 13 6 7 1022.3 1021.4 0.0
30/06:30pm 16.9 15.0 7.6 54 4.8 SSE 7 11 4 6 1022.0 1021.1 0.0
30/06:00pm 18.3 15.4 6.3 45 6.1 ESE 11 13 6 7 1021.6 1020.7 0.0
30/05:30pm 19.6 16.1 5.3 39 7.2 SE 13 20 7 11 1021.7 1020.8 0.0
30/05:00pm 19.9 15.5 4.9 37 7.5 SSE 17 22 9 12 1021.5 1020.6 0.0
30/04:30pm 20.2 15.7 4.0 34 8.0 SSE 17 26 9 14 1021.2 1020.2 0.0
30/04:00pm 20.1 15.2 4.1 35 7.9 SSE 19 26 10 14 1021.4 1020.5 0.0
30/03:30pm 20.1 15.6 4.1 35 7.9 SE 17 26 9 14 1021.3 1020.4 0.0
30/03:00pm 19.5 14.1 4.3 36 7.5 ESE 22 28 12 15 1021.0 1020.0 0.0
30/02:30pm 19.2 14.1 4.1 37 7.4 SE 20 26 11 14 1021.5 1020.6 0.0
30/02:00pm 18.6 13.5 4.0 38 7.1 SSE 20 26 11 14 1022.1 1021.2 0.0
30/01:30pm 18.6 13.2 4.6 39 6.9 SE 22 30 12 16 1022.4 1021.5 0.0
30/01:00pm 17.9 12.8 4.1 40 6.7 SE 20 32 11 17 1023.4 1022.5 0.0
30/12:30pm 17.6 12.7 5.3 44 6.1 SSE 20 28 11 15 1024.1 1023.3 0.0
30/12:00pm 18.1 12.9 3.5 38 7.0 SSE 20 30 11 16 1024.3 1023.5 0.0
30/11:30am 17.5 12.7 5.4 45 6.0 SSE 20 28 11 15 1024.3 1023.5 0.0
30/11:00am 17.3 11.0 4.0 41 6.4 SSE 26 35 14 19 1024.3 1023.5 0.0
30/10:30am 17.8 12.3 3.9 39 6.7 SE 22 33 12 18 1024.6 1023.7 0.0
30/10:00am 17.7 12.4 4.9 42 6.3 SE 22 32 12 17 1024.2 1023.4 0.0
30/09:30am 15.3 11.8 7.0 57 4.2 SE 15 22 8 12 1023.9 1023.0 0.0
30/09:00am 14.2 11.4 8.6 69 2.9 SE 13 17 7 9 1023.8 1022.9 0.0
30/08:30am 13.6 11.4 9.2 75 2.3 ESE 11 15 6 8 1023.6 1022.7 0.0
30/08:00am 13.1 11.3 9.5 79 1.9 ESE 9 11 5 6 1023.2 1022.3 0.0
30/07:30am 13.2 11.1 9.6 79 1.9 ESE 11 13 6 7 1022.8 1021.9 0.0
30/07:00am 13.3 11.6 9.9 80 1.8 E 9 15 5 8 1022.4 1021.5 0.0
30/06:30am 13.1 11.0 9.7 80 1.8 SSE 11 13 6 7 1022.1 1021.2 0.0
30/06:00am 13.2 11.4 9.4 78 2.0 SE 9 13 5 7 1021.9 1021.0 0.0
30/05:30am 13.3 11.5 9.3 77 2.1 SSE 9 11 5 6 1022.2 1021.3 0.0
30/05:00am 13.5 11.5 8.7 73 2.5 S 9 11 5 6 1022.0 1021.1 0.0
30/04:30am 13.3 11.2 8.4 72 2.5 SSW 9 11 5 6 1022.1 1021.2 0.0
30/04:00am 12.8 10.7 8.3 74 2.3 SSW 9 13 5 7 1022.0 1021.1 0.0
30/03:30am 14.1 13.2 6.0 58 4.0 CALM 0 0 0 0 1021.6 1020.7 0.0
30/03:00am 13.3 12.6 7.1 66 3.1 CALM 0 0 0 0 1021.8 1020.9 0.0
30/02:30am 13.1 12.3 8.0 71 2.6 NNE 2 6 1 3 1021.9 1021.0 0.0
30/02:00am 15.0 12.4 6.1 55 4.4 NNE 9 11 5 6 1022.0 1021.1 0.0
30/01:30am 14.4 12.4 6.1 57 4.1 NNW 6 7 3 4 1022.0 1021.1 0.0
30/01:00am 14.5 11.9 6.2 57 4.1 W 9 13 5 7 1022.2 1021.3 0.0
30/12:30am 14.7 11.3 6.0 56 4.3 WSW 13 20 7 11 1022.3 1021.4 0.0
30/12:00am 14.2 11.5 5.8 57 4.1 WNW 9 13 5 7 1022.0 1021.1 0.0
 
Date/Time
CST
Temp
°C
App
Temp
°C
Dew
Point
°C
Rel
Hum
%
Delta-T
°C
Wind Press
QNH
hPa
Press
MSL
hPa
Rain since
9am
mm
Dir  Spd
km/h
Gust
km/h
Spd
kts
Gust
kts
29/11:30pm 14.9 11.8 5.5 53 4.6 NW 11 13 6 7 1022.0 1021.1 0.0
29/11:00pm 15.7 12.9 5.0 49 5.2 NW 9 13 5 7 1021.8 1020.9 0.0
29/10:30pm 16.3 13.4 4.5 45 5.7 N 9 11 5 6 1021.6 1020.7 0.0
29/10:00pm 16.4 13.6 5.2 47 5.5 N 9 11 5 6 1021.4 1020.5 0.0
29/09:30pm 16.9 13.7 5.1 45 5.8 NNW 11 19 6 10 1021.3 1020.4 0.0
29/09:00pm 17.6 14.7 4.8 42 6.3 N 9 11 5 6 1021.4 1020.5 0.0
29/08:30pm 17.3 14.6 5.4 45 5.9 NE 9 13 5 7 1021.2 1020.2 0.0
29/08:00pm 16.8 13.8 6.0 49 5.4 NE 11 15 6 8 1021.0 1020.0 0.0
29/07:30pm 17.8 15.2 6.1 46 5.9 NNE 9 13 5 7 1020.7 1019.8 0.0
29/07:00pm 18.6 16.3 5.7 42 6.5 N 7 9 4 5 1020.3 1019.4 0.0
29/06:30pm 18.6 16.4 6.0 43 6.4 N 7 9 4 5 1019.8 1018.9 0.0
29/06:00pm 20.4 17.4 6.0 39 7.4 NNW 11 15 6 8 1019.6 1018.6 0.0
29/05:30pm 21.8 17.9 3.6 30 9.0 N 13 17 7 9 1019.4 1018.4 0.0
29/05:00pm 22.0 17.6 2.7 28 9.4 N 15 20 8 11 1019.3 1018.3 0.0
29/04:30pm 21.9 17.0 1.9 26 9.6 N 17 26 9 14 1019.2 1018.2 0.0
29/04:00pm 22.1 17.7 2.6 27 9.5 N 15 20 8 11 1019.1 1018.1 0.0
29/03:30pm 21.8 17.1 3.0 29 9.2 N 17 24 9 13 1019.2 1018.2 0.0
29/03:00pm 21.1 16.0 3.0 30 8.8 NNW 19 28 10 15 1019.4 1018.4 0.0
29/02:30pm 20.5 15.3 2.6 30 8.6 N 19 28 10 15 1019.6 1018.6 0.0
29/02:00pm 19.8 14.4 2.7 32 8.2 N 20 28 11 15 1019.8 1018.9 0.0
29/01:30pm 19.3 13.0 1.8 31 8.2 N 24 32 13 17 1020.2 1019.3 0.0
29/01:00pm 18.9 11.8 1.1 30 8.2 N 28 39 15 21 1020.6 1019.7 0.0
29/12:30pm 18.3 10.6 0.0 29 8.2 N 30 37 16 20 1021.1 1020.1 0.0
29/12:00pm 18.3 12.3 1.1 31 7.9 N 22 32 12 17 1021.5 1020.6 0.0
29/11:30am 17.1 9.3 -0.7 30 7.8 N 30 39 16 21 1021.9 1021.0 0.0
29/11:00am 16.9 10.3 -0.4 31 7.6 N 24 35 13 19 1022.2 1021.3 0.0
29/10:30am 16.0 8.5 -1.3 30 7.4 N 28 41 15 22 1022.2 1021.3 0.0
29/10:00am 15.6 8.4 -2.4 29 7.5 N 26 39 14 21 1022.2 1021.3 0.0
29/09:30am 15.2 8.0 -2.4 29 7.3 N 26 35 14 19 1022.1 1021.2 0.0
29/09:00am 14.4 7.5 -2.3 31 6.9 N 24 35 13 19 1021.9 1021.0 0.0
29/08:30am 13.9 7.8 -2.5 32 6.7 NNW 20 30 11 16 1021.8 1020.9 0.0
29/08:00am 13.4 7.3 -2.3 33 6.4 NNW 20 30 11 16 1021.4 1020.5 0.0
29/07:30am 13.2 7.3 -1.9 35 6.2 N 19 26 10 14 1021.2 1020.2 0.0
29/07:00am 13.6 7.7 -2.3 33 6.5 N 19 30 10 16 1021.0 1020.0 0.0
29/06:30am 13.9 7.8 -2.1 33 6.6 N 20 32 11 17 1020.7 1019.8 0.0
29/06:00am 14.4 7.5 -2.3 31 6.9 N 24 37 13 20 1020.5 1019.6 0.0
29/05:30am 14.6 7.4 -2.3 31 7.0 N 26 39 14 21 1020.4 1019.5 0.0
29/05:00am 14.4 7.6 -1.6 33 6.7 N 24 33 13 18 1020.3 1019.4 0.0
29/04:30am 13.8 8.1 -0.5 37 6.1 N 19 26 10 14 1020.5 1019.6 0.0
29/04:00am 14.0 8.8 -0.2 37 6.1 N 17 24 9 13 1020.7 1019.8 0.0
29/03:30am 13.9 8.7 0.3 39 5.9 N 17 24 9 13 1021.0 1020.0 0.0
29/03:00am 13.7 9.0 1.0 42 5.6 N 15 24 8 13 1021.1 1020.1 0.0
29/02:30am 13.5 9.2 1.0 42 5.5 N 13 19 7 10 1021.5 1020.6 0.0
29/02:00am 13.4 9.2 1.4 44 5.3 NNE 13 15 7 8 1021.6 1020.7 0.0
29/01:30am 14.0 8.5 0.8 40 5.8 NNE 19 26 10 14 1021.9 1021.0 0.0
29/01:00am 14.0 8.9 0.5 39 5.9 NNE 17 26 9 14 1022.0 1021.1 0.0
29/12:30am 14.3 9.1 0.3 38 6.1 NNE 17 22 9 12 1022.0 1021.1 0.0
29/12:00am 14.0 9.2 0.5 39 5.9 NNE 15 22 8 12 1022.0 1021.1 0.0
 
Date/Time
CST
Temp
°C
App
Temp
°C
Dew
Point
°C
Rel
Hum
%
Delta-T
°C
Wind Press
QNH
hPa
Press
MSL
hPa
Rain since
9am
mm
Dir  Spd
km/h
Gust
km/h
Spd
kts
Gust
kts
28/11:30pm 13.6 10.1 1.4 43 5.4 NNE 9 17 5 9 1022.2 1021.3 0.0
28/11:00pm 14.3 10.4 1.3 41 5.8 NNE 11 17 6 9 1022.4 1021.5 0.0
28/10:30pm 14.2 9.6 1.4 42 5.7 NNE 15 20 8 11 1022.5 1021.6 0.0
28/10:00pm 14.5 10.3 1.6 41 5.8 NNE 13 20 7 11 1022.4 1021.5 0.0
28/09:30pm 14.7 9.4 1.6 41 5.9 NNE 19 26 10 14 1022.5 1021.6 0.0
28/09:00pm 14.9 9.5 1.3 39 6.1 NNE 19 30 10 16 1022.5 1021.6 0.0
28/08:30pm 13.2 9.3 3.2 50 4.6 NNE 13 17 7 9 1022.4 1021.5 0.0
28/08:00pm 13.9 10.3 3.1 48 5.0 N 11 17 6 9 1022.1 1021.2 0.0
28/07:30pm 14.7 10.7 2.8 44 5.5 NNE 13 20 7 11 1021.7 1020.8 0.0

Other Formats:

Comma delimited format used in spreadsheet applications
http://www.bom.gov.au/fwo/IDD60801/IDD60801.94461.axf

JavaScript Object Notation format (JSON) in row-major order
http://www.bom.gov.au/fwo/IDD60801/IDD60801.94461.json